Pagina principale
METAR-TAF:

METAR-TAF

Aeroporti :

Aeroporto di Pisa-San Giusto

Pisa, Italia

latitudine: 43-41N, longitudine: 010-23E, altezza: 2 m

Osservazione

Il bollettino è stato emesso 31 minuti fa, alle 16:15 UTC
Vento 3 kt da sud
Temperature 9°C
Umidità 81%
Pressione 1018 hPa
Visibilità 10 km o più
Poco nuvoloso ad un'altezza di 2500 ft

METAR: LIRP 201615Z 19003KT 9999 FEW025 09/06 Q1018 NOSIG

Ora: 17:46 (16:46 UTC)

Previsione

Il bollettino è stato emesso 5 ore e 46 minuti fa, alle 11:00 UTC
Previsione valida dal 20 alle 12 UTC al 21 alle 12 UTC
Vento 7 kt da est/sud-est
Visibilità 10 km o più
Nubi sparse ad un'altezza di 2000 ft
Nubi sparse ad un'altezza di 5000 ft
Temporaneamente
dal 20 alle 18 UTC al 21 alle 05 UTC
Visibilità: 3000 m
Nubi sparse ad un'altezza di 500 ft
foschia

TAF: LIRP 201100Z 2012/2112 12007KT 9999 SCT020 SCT050 TEMPO 2018/2105 3000 BR SCT005

Osservazioni e previsioni meteorologiche di più di 4000 aeroporti (messaggi METAR e TAF).

Le stazioni disponibili sono rappresentate dai dischi gialli e rossi sulla carta.

Puntare il mouse per vedere il nome della stazione.

Clicca sopra per visualizzare le osservazioni e previsioni meteorologiche.

Per cambiare la mappa : fare clic sui pulsanti verdi con una croce nera per ingrandire, il pulsante verde con un trattino per diminuire, o sulla freccia verde per le mappe adiacenti.


METAR-TAF: